createdAt,value
2022-10-13T00:04:52.206Z,23.00
2022-10-13T00:09:57.442Z,26.00
2022-10-13T00:15:01.338Z,22.20
2022-10-13T00:20:05.720Z,28.27
2022-10-13T00:25:11.171Z,28.13
2022-10-13T00:30:15.072Z,32.83
2022-10-13T00:35:18.849Z,20.52
2022-10-13T00:40:24.210Z,23.25
2022-10-13T00:45:29.690Z,24.83
2022-10-13T00:50:37.660Z,27.17
2022-10-13T00:55:44.633Z,26.20
2022-10-13T01:00:50.556Z,29.92
2022-10-13T01:05:58.495Z,27.38
2022-10-13T01:11:25.106Z,22.67
2022-10-13T01:21:36.267Z,24.95
2022-10-13T01:27:05.565Z,18.10
2022-10-13T01:32:13.995Z,25.23
2022-10-13T01:37:22.273Z,25.40
2022-10-13T01:42:31.789Z,21.38
2022-10-13T01:47:37.326Z,25.02
2022-10-13T01:52:41.206Z,19.37
2022-10-13T01:57:46.486Z,25.80
2022-10-13T02:03:01.704Z,21.03
2022-10-13T02:08:10.428Z,26.92
2022-10-13T02:13:16.133Z,27.33
2022-10-13T02:18:25.181Z,22.60
2022-10-13T02:23:29.780Z,27.20
2022-10-13T02:28:33.673Z,19.50
2022-10-13T02:33:38.906Z,24.52
2022-10-13T02:38:42.791Z,21.70
2022-10-13T02:43:47.948Z,23.85
2022-10-13T02:48:53.463Z,27.52
2022-10-13T02:53:57.255Z,23.33
2022-10-13T02:59:01.207Z,28.23
2022-10-13T03:04:06.419Z,28.17
2022-10-13T03:09:10.351Z,22.02
2022-10-13T03:14:14.216Z,30.48
2022-10-13T03:19:19.706Z,66.57
2022-10-13T03:24:23.544Z,25.63
2022-10-13T03:29:27.337Z,26.80
2022-10-13T03:34:32.704Z,29.05
2022-10-13T03:39:36.675Z,21.07
2022-10-13T03:44:40.620Z,32.10
2022-10-13T03:49:45.875Z,32.13
2022-10-13T03:54:49.869Z,26.50
2022-10-13T03:59:56.091Z,30.35
2022-10-13T04:05:05.487Z,32.85
2022-10-13T04:10:11.548Z,26.80
2022-10-13T04:15:17.263Z,30.45
2022-10-13T04:20:22.548Z,33.30
2022-10-13T04:25:26.355Z,27.00
2022-10-13T04:30:30.474Z,26.90
2022-10-13T04:35:35.846Z,30.00
2022-10-13T04:40:41.924Z,27.70
2022-10-13T04:45:45.720Z,29.60
2022-10-13T04:50:59.969Z,27.25
2022-10-13T04:56:04.845Z,30.63
2022-10-13T05:01:10.143Z,34.67
2022-10-13T05:06:19.201Z,30.53
2022-10-13T05:11:25.662Z,37.55
2022-10-13T05:16:31.021Z,25.42
2022-10-13T05:21:36.218Z,32.10
2022-10-13T05:26:40.185Z,24.42
2022-10-13T05:31:44.050Z,35.20
2022-10-13T05:36:49.253Z,22.88
2022-10-13T05:41:53.076Z,27.88
2022-10-13T05:47:02.605Z,27.52
2022-10-13T05:52:11.876Z,29.08
2022-10-13T05:57:17.258Z,29.98
2022-10-13T06:02:22.787Z,27.57
2022-10-13T06:07:28.262Z,29.48
2022-10-13T06:12:32.076Z,24.77
2022-10-13T06:17:38.063Z,30.40
2022-10-13T06:22:43.313Z,26.73
2022-10-13T06:27:47.162Z,31.53
2022-10-13T06:32:51.029Z,28.02
2022-10-13T06:37:56.271Z,21.40
2022-10-13T06:43:00.221Z,21.13
2022-10-13T06:48:04.115Z,22.77
2022-10-13T06:53:09.386Z,28.70
2022-10-13T06:58:13.213Z,21.83
2022-10-13T07:03:16.980Z,25.90
2022-10-13T07:08:22.515Z,28.13
2022-10-13T07:13:26.362Z,36.92
2022-10-13T07:18:30.206Z,24.67
2022-10-13T07:23:35.514Z,37.05
2022-10-13T07:28:39.582Z,23.93
2022-10-13T07:33:44.558Z,25.55
2022-10-13T07:38:49.771Z,32.53
2022-10-13T07:43:56.031Z,21.57
2022-10-13T07:48:59.803Z,18.88
2022-10-13T07:54:05.194Z,21.17
2022-10-13T07:59:10.210Z,29.75
2022-10-13T08:04:14.172Z,24.27
2022-10-13T08:09:19.387Z,25.58
2022-10-13T08:14:23.186Z,25.07
2022-10-13T08:19:28.450Z,25.13
2022-10-13T08:24:33.980Z,26.73
2022-10-13T08:29:37.802Z,22.92
2022-10-13T08:34:41.602Z,25.52
2022-10-13T08:39:47.359Z,20.10
2022-10-13T08:50:20.159Z,21.83
2022-10-13T08:55:31.861Z,25.35
2022-10-13T09:00:35.721Z,25.27
2022-10-13T09:05:46.005Z,19.02
2022-10-13T09:10:52.378Z,15.45
2022-10-13T09:15:59.350Z,24.02
2022-10-13T09:21:17.600Z,14.13
2022-10-13T09:26:25.323Z,19.85
2022-10-13T09:31:30.619Z,21.80
2022-10-13T09:36:34.594Z,19.52
2022-10-13T09:41:41.036Z,15.07
2022-10-13T09:46:50.451Z,23.67
2022-10-13T09:52:00.999Z,24.45
2022-10-13T09:57:13.013Z,15.05
2022-10-13T10:02:29.910Z,15.45
2022-10-13T10:07:34.473Z,14.65
2022-10-13T10:12:42.284Z,38.28
2022-10-13T10:17:53.290Z,15.00
2022-10-13T10:23:01.355Z,12.93
2022-10-13T10:28:33.406Z,15.68
2022-10-13T10:33:44.676Z,13.68
2022-10-13T10:38:52.771Z,16.65
2022-10-13T10:43:59.876Z,16.38
2022-10-13T10:49:12.560Z,13.85
2022-10-13T10:54:27.472Z,12.15
2022-10-13T10:59:43.850Z,14.18
2022-10-13T11:04:48.886Z,16.08
2022-10-13T11:15:27.462Z,17.33
2022-10-13T11:20:49.562Z,10.57
2022-10-13T11:25:53.355Z,13.13
2022-10-13T11:30:59.328Z,15.10
2022-10-13T11:36:47.988Z,11.80
2022-10-13T11:41:56.604Z,13.30
2022-10-13T11:47:09.430Z,12.02
2022-10-13T11:52:29.022Z,11.30
2022-10-13T11:57:33.960Z,15.40
2022-10-13T12:02:49.820Z,12.82
2022-10-13T12:08:02.531Z,9.25
2022-10-13T12:13:06.950Z,8.93
2022-10-13T12:18:24.704Z,12.73
2022-10-13T12:23:31.090Z,13.20
2022-10-13T12:28:51.367Z,13.35
2022-10-13T12:33:57.984Z,13.75
2022-10-13T12:39:05.986Z,7.85
2022-10-13T12:44:14.393Z,11.93
2022-10-13T12:49:24.117Z,8.20
2022-10-13T12:54:30.322Z,6.10
2022-10-13T12:59:34.848Z,11.82
2022-10-13T13:04:45.000Z,7.68
2022-10-13T13:10:01.340Z,8.85
2022-10-13T13:15:29.670Z,11.07
2022-10-13T13:20:37.951Z,13.55
2022-10-13T13:25:41.802Z,21.38
2022-10-13T13:30:45.851Z,12.90
2022-10-13T13:35:51.039Z,11.73
2022-10-13T13:40:54.856Z,17.27
2022-10-13T13:45:58.992Z,17.08
2022-10-13T13:51:04.211Z,17.08
2022-10-13T13:56:12.084Z,8.85
2022-10-13T14:01:16.264Z,15.98
2022-10-13T14:06:22.846Z,9.88
2022-10-13T14:11:26.779Z,8.70
2022-10-13T14:16:30.592Z,9.07
2022-10-13T14:21:36.478Z,9.95
2022-10-13T14:26:47.111Z,14.00
2022-10-13T14:31:50.948Z,16.88
2022-10-13T14:36:56.227Z,11.70
2022-10-13T14:42:00.015Z,12.82
2022-10-13T14:47:03.859Z,17.15
2022-10-13T14:52:09.989Z,10.60
2022-10-13T14:57:16.138Z,15.05
2022-10-13T15:02:20.050Z,16.27
2022-10-13T15:07:31.798Z,15.90
2022-10-13T15:12:35.925Z,18.60
2022-10-13T15:17:39.792Z,10.30
2022-10-13T15:22:44.955Z,19.90
2022-10-13T15:27:49.598Z,16.73
2022-10-13T15:32:53.731Z,17.45
2022-10-13T15:37:58.966Z,18.80
2022-10-13T15:43:02.955Z,19.67
2022-10-13T15:48:10.047Z,19.38
2022-10-13T15:53:15.265Z,14.18
2022-10-13T15:58:19.379Z,25.60
2022-10-13T16:03:24.219Z,21.67
2022-10-13T16:08:29.484Z,17.52
2022-10-13T16:13:33.691Z,22.20
2022-10-13T16:18:39.204Z,16.90
2022-10-13T16:23:44.379Z,24.92
2022-10-13T16:28:48.472Z,16.00
2022-10-13T16:33:52.418Z,20.50
2022-10-13T16:38:57.674Z,13.98
2022-10-13T16:44:01.469Z,15.80
2022-10-13T16:49:05.383Z,25.70
2022-10-13T16:54:10.988Z,19.38
2022-10-13T16:59:14.811Z,18.92
2022-10-13T17:04:22.169Z,19.67
2022-10-13T17:09:27.934Z,19.63
2022-10-13T17:14:32.039Z,15.30
2022-10-13T17:19:36.002Z,17.35
2022-10-13T17:24:47.750Z,25.75
2022-10-13T17:29:53.915Z,49.50
2022-10-13T17:34:57.934Z,43.90
2022-10-13T17:40:03.222Z,49.80
2022-10-13T17:45:07.911Z,41.93
2022-10-13T17:50:11.770Z,48.08
2022-10-13T17:55:17.067Z,48.22
2022-10-13T18:00:20.979Z,47.10
2022-10-13T18:05:26.244Z,48.17
2022-10-13T18:10:45.610Z,31.60
2022-10-13T18:15:55.191Z,28.50
2022-10-13T18:20:59.131Z,26.33
2022-10-13T18:26:06.369Z,25.85
2022-10-13T18:31:12.334Z,23.67
2022-10-13T18:36:19.863Z,31.55
2022-10-13T18:41:25.780Z,25.35
2022-10-13T18:46:29.619Z,23.90
2022-10-13T18:51:36.219Z,24.13
2022-10-13T18:56:41.803Z,24.67
2022-10-13T19:01:45.820Z,24.77
2022-10-13T19:06:49.921Z,32.50
2022-10-13T19:11:56.379Z,24.40
2022-10-13T19:17:02.357Z,28.45
2022-10-13T19:22:07.867Z,22.42
2022-10-13T19:27:13.086Z,24.58
2022-10-13T19:32:16.925Z,24.10
2022-10-13T19:37:20.846Z,21.10
2022-10-13T19:42:26.495Z,24.02
2022-10-13T19:47:30.393Z,21.40
2022-10-13T19:52:34.418Z,21.98
2022-10-13T19:57:39.753Z,23.55
2022-10-13T20:02:43.631Z,21.67
2022-10-13T20:07:47.725Z,19.60
2022-10-13T20:12:53.090Z,15.13
2022-10-13T20:17:56.912Z,19.67
2022-10-13T20:23:01.711Z,24.33
2022-10-13T20:28:07.358Z,21.15
2022-10-13T20:33:11.180Z,22.30
2022-10-13T20:38:15.139Z,22.27
2022-10-13T20:43:25.517Z,22.75
2022-10-13T20:48:51.032Z,15.93
2022-10-13T20:53:56.458Z,20.73
2022-10-13T20:59:04.998Z,19.35
2022-10-13T21:04:08.816Z,18.23
2022-10-13T21:09:12.807Z,25.35
2022-10-13T21:19:23.650Z,28.83
2022-10-13T21:24:27.508Z,21.48
2022-10-13T21:29:32.817Z,17.27
2022-10-13T21:34:36.821Z,19.90
2022-10-13T21:39:40.696Z,18.70
2022-10-13T21:44:45.864Z,17.10
2022-10-13T21:49:49.680Z,21.02
2022-10-13T21:54:54.182Z,16.25
2022-10-13T21:59:59.392Z,17.35
2022-10-13T22:05:03.278Z,15.43
2022-10-13T22:10:07.344Z,22.20
2022-10-13T22:15:12.845Z,18.58
2022-10-13T22:20:16.708Z,19.53
2022-10-13T22:25:21.458Z,19.15
2022-10-13T22:30:26.642Z,16.95
2022-10-13T22:35:30.404Z,20.55
2022-10-13T22:40:34.282Z,18.25
2022-10-13T22:45:39.516Z,16.90
2022-10-13T22:50:43.317Z,15.57
2022-10-13T22:55:47.019Z,17.52
2022-10-13T23:00:52.205Z,19.48
2022-10-13T23:05:55.971Z,15.40
2022-10-13T23:10:59.842Z,17.70
2022-10-13T23:16:05.956Z,17.48
2022-10-13T23:21:15.878Z,19.50
2022-10-13T23:26:19.647Z,25.03
2022-10-13T23:31:25.244Z,19.10
2022-10-13T23:36:30.771Z,20.53
2022-10-13T23:41:35.591Z,16.45
2022-10-13T23:46:40.783Z,15.15
2022-10-13T23:51:47.238Z,17.23
2022-10-13T23:56:51.079Z,16.80
